createdAt,value
2023-02-12T00:02:03.528Z,8.45
2023-02-12T00:04:32.701Z,9.60
2023-02-12T00:07:01.952Z,8.90
2023-02-12T00:09:32.373Z,8.68
2023-02-12T00:12:01.567Z,5.63
2023-02-12T00:14:30.681Z,4.82
2023-02-12T00:16:59.755Z,14.57
2023-02-12T00:19:28.834Z,12.23
2023-02-12T00:21:57.841Z,11.70
2023-02-12T00:24:27.945Z,15.68
2023-02-12T00:26:58.404Z,18.55
2023-02-12T00:29:27.480Z,12.60
2023-02-12T00:31:56.593Z,15.68
2023-02-12T00:34:28.966Z,12.38
2023-02-12T00:36:58.117Z,13.18
2023-02-12T00:39:28.599Z,14.50
2023-02-12T00:41:59.058Z,12.10
2023-02-12T00:44:28.066Z,15.30
2023-02-12T00:46:57.973Z,16.30
2023-02-12T00:49:27.141Z,14.68
2023-02-12T00:51:56.264Z,17.55
2023-02-12T00:54:25.285Z,15.40
2023-02-12T00:56:55.867Z,15.18
2023-02-12T00:59:26.742Z,15.88
2023-02-12T01:01:56.689Z,19.73
2023-02-12T01:04:26.330Z,20.05
2023-02-12T01:06:57.573Z,18.75
2023-02-12T01:09:26.637Z,17.00
2023-02-12T01:11:55.693Z,15.00
2023-02-12T01:14:26.174Z,19.70
2023-02-12T01:16:55.348Z,19.13
2023-02-12T01:19:24.382Z,16.55
2023-02-12T01:21:53.469Z,17.42
2023-02-12T01:24:22.894Z,16.80
2023-02-12T01:26:53.047Z,20.00
2023-02-12T01:29:22.009Z,19.88
2023-02-12T01:31:52.621Z,13.48
2023-02-12T01:34:21.771Z,11.55
2023-02-12T01:36:50.774Z,12.73
2023-02-12T01:39:19.802Z,9.02
2023-02-12T01:41:48.840Z,9.43
2023-02-12T01:44:21.208Z,11.52
2023-02-12T01:46:56.459Z,8.02
2023-02-12T01:49:30.095Z,7.53
2023-02-12T01:52:05.830Z,9.68
2023-02-12T01:54:36.816Z,8.25
2023-02-12T01:57:07.749Z,7.18
2023-02-12T01:59:39.163Z,9.85
2023-02-12T02:04:41.574Z,5.88
2023-02-12T02:07:13.239Z,7.93
2023-02-12T02:09:42.955Z,7.72
2023-02-12T02:12:29.600Z,9.23
2023-02-12T02:15:02.776Z,7.60
2023-02-12T02:17:49.988Z,6.45
2023-02-12T02:20:39.964Z,8.85
2023-02-12T02:23:31.853Z,7.25
2023-02-12T02:26:48.234Z,6.28
2023-02-12T02:29:45.623Z,6.18
2023-02-12T02:32:19.876Z,4.57
2023-02-12T02:34:55.398Z,6.55
2023-02-12T02:37:29.821Z,6.30
2023-02-12T02:40:07.039Z,5.78
2023-02-12T02:42:40.412Z,4.80
2023-02-12T02:45:14.493Z,6.68
2023-02-12T02:47:48.358Z,6.32
2023-02-12T02:50:21.808Z,5.68
2023-02-12T02:52:57.412Z,8.02
2023-02-12T02:55:31.549Z,5.88
2023-02-12T02:58:04.271Z,5.70
2023-02-12T03:00:38.329Z,4.70
2023-02-12T03:03:14.157Z,4.95
2023-02-12T03:05:47.684Z,6.05
2023-02-12T03:08:24.130Z,5.32
2023-02-12T03:10:58.735Z,6.82
2023-02-12T03:13:31.101Z,7.07
2023-02-12T03:16:04.163Z,9.13
2023-02-12T03:18:37.600Z,4.80
2023-02-12T03:21:12.015Z,6.15
2023-02-12T03:23:45.156Z,4.60
2023-02-12T03:26:20.913Z,4.55
2023-02-12T03:28:50.372Z,4.93
2023-02-12T03:31:29.601Z,5.93
2023-02-12T03:34:12.354Z,6.88
2023-02-12T03:36:49.118Z,5.13
2023-02-12T03:39:26.804Z,8.40
2023-02-12T03:42:03.260Z,9.65
2023-02-12T03:44:48.233Z,5.07
2023-02-12T03:47:26.318Z,5.95
2023-02-12T03:50:03.936Z,8.18
2023-02-12T03:52:33.230Z,7.57
2023-02-12T03:55:02.452Z,6.15
2023-02-12T03:57:35.720Z,6.38
2023-02-12T04:00:09.371Z,6.00
2023-02-12T04:02:44.803Z,8.05
2023-02-12T04:05:24.118Z,4.78
2023-02-12T04:07:55.097Z,5.95
2023-02-12T04:10:30.621Z,8.38
2023-02-12T04:13:12.104Z,6.38
2023-02-12T04:18:23.797Z,5.70
2023-02-12T04:21:03.894Z,6.32
2023-02-12T04:23:45.652Z,5.63
2023-02-12T04:26:23.707Z,6.10
2023-02-12T04:29:06.737Z,5.72
2023-02-12T04:31:46.529Z,8.98
2023-02-12T04:34:20.772Z,7.13
2023-02-12T04:36:58.269Z,9.48
2023-02-12T04:39:31.330Z,7.97
2023-02-12T04:42:01.191Z,9.05
2023-02-12T04:44:32.005Z,5.95
2023-02-12T04:47:01.200Z,8.82
2023-02-12T04:49:30.545Z,9.00
2023-02-12T04:52:01.147Z,7.10
2023-02-12T04:54:30.219Z,7.45
2023-02-12T04:56:59.302Z,11.98
2023-02-12T04:59:28.486Z,11.45
2023-02-12T05:01:57.526Z,8.52
2023-02-12T05:04:26.551Z,6.75
2023-02-12T05:06:55.567Z,7.88
2023-02-12T05:09:25.971Z,8.55
2023-02-12T05:11:54.984Z,7.20
2023-02-12T05:14:26.092Z,8.57
2023-02-12T05:16:55.140Z,10.10
2023-02-12T05:19:24.203Z,7.93
2023-02-12T05:21:53.276Z,8.88
2023-02-12T05:24:22.279Z,8.10
2023-02-12T05:26:53.278Z,8.60
2023-02-12T05:29:22.353Z,6.53
2023-02-12T05:31:51.550Z,7.15
2023-02-12T05:34:21.092Z,6.60
2023-02-12T05:36:50.088Z,8.70
2023-02-12T05:39:19.188Z,7.68
2023-02-12T05:41:48.231Z,7.78
2023-02-12T05:44:18.907Z,5.88
2023-02-12T05:46:48.565Z,8.63
2023-02-12T05:49:17.965Z,8.13
2023-02-12T05:51:46.985Z,7.43
2023-02-12T05:54:16.331Z,5.75
2023-02-12T05:56:47.835Z,8.45
2023-02-12T05:59:19.928Z,6.85
2023-02-12T06:01:51.179Z,8.13
2023-02-12T06:04:23.726Z,11.75
2023-02-12T06:06:53.497Z,14.98
2023-02-12T06:09:23.712Z,11.70
2023-02-12T06:11:52.924Z,8.52
2023-02-12T06:14:23.447Z,7.00
2023-02-12T06:16:53.446Z,7.60
2023-02-12T06:19:25.577Z,7.68
2023-02-12T06:21:55.033Z,6.50
2023-02-12T06:24:24.148Z,6.40
2023-02-12T06:26:56.902Z,5.63
2023-02-12T06:29:27.372Z,6.28
2023-02-12T06:31:56.760Z,6.72
2023-02-12T06:34:26.181Z,6.90
2023-02-12T06:36:55.237Z,6.20
2023-02-12T06:39:24.459Z,4.78
2023-02-12T06:41:54.580Z,7.70
2023-02-12T06:44:23.615Z,5.78
2023-02-12T06:46:54.610Z,7.72
2023-02-12T06:49:23.656Z,4.72
2023-02-12T06:51:53.845Z,7.70
2023-02-12T06:54:22.830Z,7.53
2023-02-12T06:56:51.830Z,6.57
2023-02-12T06:59:23.505Z,6.45
2023-02-12T07:01:53.899Z,6.78
2023-02-12T07:04:22.915Z,9.40
2023-02-12T07:06:52.190Z,7.55
2023-02-12T07:09:21.329Z,8.75
2023-02-12T07:11:50.411Z,9.35
2023-02-12T07:14:19.500Z,7.55
2023-02-12T07:16:48.523Z,7.25
2023-02-12T07:19:18.940Z,4.88
2023-02-12T07:21:51.365Z,4.43
2023-02-12T07:24:22.798Z,4.82
2023-02-12T07:26:51.867Z,4.85
2023-02-12T07:29:22.031Z,4.93
2023-02-12T07:31:58.777Z,4.70
2023-02-12T07:34:29.255Z,8.77
2023-02-12T07:36:58.328Z,7.70
2023-02-12T07:39:27.315Z,4.47
2023-02-12T07:41:57.968Z,6.57
2023-02-12T07:44:27.133Z,4.57
2023-02-12T07:46:56.231Z,3.67
2023-02-12T07:49:25.717Z,5.95
2023-02-12T07:51:56.908Z,4.45
2023-02-12T07:54:26.073Z,4.00
2023-02-12T07:56:55.308Z,3.40
2023-02-12T07:59:24.416Z,2.40
2023-02-12T08:01:54.632Z,5.85
2023-02-12T08:04:25.897Z,7.15
2023-02-12T08:09:28.573Z,5.65
2023-02-12T08:11:59.641Z,5.45
2023-02-12T08:14:29.287Z,8.60
2023-02-12T08:16:58.316Z,4.97
2023-02-12T08:19:27.396Z,7.97
2023-02-12T08:21:58.501Z,6.57
2023-02-12T08:24:27.636Z,8.52
2023-02-12T08:26:57.816Z,9.07
2023-02-12T08:29:29.448Z,7.90
2023-02-12T08:32:00.264Z,9.23
2023-02-12T08:34:31.704Z,5.00
2023-02-12T08:37:02.676Z,6.43
2023-02-12T08:39:32.106Z,12.60
2023-02-12T08:42:02.791Z,9.18
2023-02-12T08:44:32.376Z,10.43
2023-02-12T08:47:01.401Z,8.82
2023-02-12T08:49:31.397Z,8.68
2023-02-12T08:52:02.733Z,9.13
2023-02-12T08:57:03.347Z,9.27
2023-02-12T08:59:33.166Z,7.75
2023-02-12T09:02:04.091Z,14.13
2023-02-12T09:04:34.293Z,7.82
2023-02-12T09:07:04.846Z,8.75
2023-02-12T09:09:34.227Z,8.13
2023-02-12T09:12:03.275Z,8.95
2023-02-12T09:14:32.389Z,10.38
2023-02-12T09:17:01.583Z,8.63
2023-02-12T09:19:30.847Z,7.80
2023-02-12T09:22:00.826Z,15.55
2023-02-12T09:24:32.417Z,12.93
2023-02-12T09:27:01.690Z,9.45
2023-02-12T09:29:30.702Z,10.63
2023-02-12T09:31:59.885Z,10.77
2023-02-12T09:34:29.098Z,10.00
2023-02-12T09:36:58.307Z,8.75
2023-02-12T09:39:30.838Z,8.77
2023-02-12T09:42:23.370Z,9.20
2023-02-12T09:44:59.932Z,11.25
2023-02-12T09:47:36.822Z,13.38
2023-02-12T09:50:24.684Z,6.72
2023-02-12T09:52:56.921Z,5.93
2023-02-12T09:55:30.266Z,10.52
2023-02-12T09:58:03.606Z,8.20
2023-02-12T10:00:33.248Z,12.10
2023-02-12T10:03:05.734Z,10.05
2023-02-12T10:05:40.371Z,12.65
2023-02-12T10:08:26.554Z,10.80
2023-02-12T10:11:01.228Z,8.77
2023-02-12T10:13:42.633Z,9.60
2023-02-12T10:19:01.032Z,10.98
2023-02-12T10:21:39.411Z,13.13
2023-02-12T10:24:35.009Z,7.80
2023-02-12T10:27:10.666Z,14.35
2023-02-12T10:29:43.846Z,11.85
2023-02-12T10:32:23.491Z,11.55
2023-02-12T10:34:53.755Z,12.10
2023-02-12T10:37:33.708Z,12.30
2023-02-12T10:40:07.329Z,11.13
2023-02-12T10:42:42.051Z,8.48
2023-02-12T10:45:17.973Z,14.00
2023-02-12T10:47:51.742Z,11.88
2023-02-12T10:50:29.681Z,8.93
2023-02-12T10:53:03.525Z,6.85
2023-02-12T10:55:34.932Z,7.05
2023-02-12T10:58:07.158Z,6.53
2023-02-12T11:00:48.002Z,7.50
2023-02-12T11:03:23.047Z,9.15
2023-02-12T11:05:54.314Z,7.72
2023-02-12T11:08:33.607Z,11.73
2023-02-12T11:11:09.976Z,9.32
2023-02-12T11:13:41.548Z,11.48
2023-02-12T11:16:15.311Z,10.77
2023-02-12T11:18:45.134Z,8.27
2023-02-12T11:21:14.710Z,9.68
2023-02-12T11:23:45.321Z,8.40
2023-02-12T11:26:27.836Z,12.07
2023-02-12T11:28:59.441Z,12.25
2023-02-12T11:31:31.776Z,11.45
2023-02-12T11:34:16.703Z,8.02
2023-02-12T11:36:47.984Z,10.57
2023-02-12T11:41:56.204Z,12.77
2023-02-12T11:44:28.894Z,9.85
2023-02-12T11:47:02.244Z,10.73
2023-02-12T11:49:33.305Z,12.95
2023-02-12T11:52:03.960Z,12.25
2023-02-12T11:54:40.100Z,10.80
2023-02-12T11:57:12.052Z,13.77
2023-02-12T11:59:47.277Z,14.10
2023-02-12T12:02:26.410Z,10.23
2023-02-12T12:05:04.560Z,10.23
2023-02-12T12:07:37.678Z,14.63
2023-02-12T12:10:14.598Z,13.85
2023-02-12T12:12:47.637Z,12.75
2023-02-12T12:15:41.117Z,13.65
2023-02-12T12:18:39.597Z,12.23
2023-02-12T12:21:15.429Z,13.88
2023-02-12T12:23:49.021Z,16.45
2023-02-12T12:26:25.446Z,12.98
2023-02-12T12:29:02.840Z,16.15
2023-02-12T12:31:38.028Z,15.27
2023-02-12T12:34:11.482Z,13.57
2023-02-12T12:37:17.852Z,17.30
2023-02-12T12:40:04.636Z,12.45
2023-02-12T12:42:57.183Z,15.32
2023-02-12T12:45:50.975Z,15.48
2023-02-12T12:48:37.068Z,13.98
2023-02-12T12:51:26.269Z,15.65
2023-02-12T12:54:18.637Z,14.32
2023-02-12T12:57:03.209Z,16.10
2023-02-12T13:00:04.996Z,21.75
2023-02-12T13:03:00.481Z,17.35
2023-02-12T13:06:11.495Z,19.10
2023-02-12T13:09:07.889Z,13.63
2023-02-12T13:12:04.840Z,23.85
2023-02-12T13:14:45.283Z,20.73
2023-02-12T13:17:24.038Z,20.67
2023-02-12T13:20:04.337Z,17.95
2023-02-12T13:22:38.828Z,14.77
2023-02-12T13:25:22.910Z,19.13
2023-02-12T13:27:53.800Z,16.30
2023-02-12T13:30:26.224Z,17.23
2023-02-12T13:33:15.543Z,21.02
2023-02-12T13:35:51.212Z,15.20
2023-02-12T13:38:37.857Z,16.55
2023-02-12T13:41:13.152Z,17.30
2023-02-12T13:43:58.161Z,17.52
2023-02-12T13:46:36.719Z,16.60
2023-02-12T13:49:39.558Z,14.70
2023-02-12T13:52:20.014Z,15.13
2023-02-12T13:54:58.908Z,15.48
2023-02-12T13:57:29.622Z,18.85
2023-02-12T14:00:00.208Z,14.32
2023-02-12T14:02:56.425Z,13.25
2023-02-12T14:05:44.096Z,16.83
2023-02-12T14:08:44.711Z,17.50
2023-02-12T14:11:56.700Z,13.77
2023-02-12T14:14:45.092Z,10.85
2023-02-12T14:17:44.393Z,14.80
2023-02-12T14:20:28.687Z,12.88
2023-02-12T14:23:22.780Z,7.65
2023-02-12T14:26:04.273Z,6.85
2023-02-12T14:28:45.282Z,9.65
2023-02-12T14:31:36.319Z,7.38
2023-02-12T14:34:47.263Z,7.32
2023-02-12T14:37:38.544Z,11.05
2023-02-12T14:40:47.984Z,7.68
2023-02-12T14:43:54.733Z,13.93
2023-02-12T14:46:48.380Z,9.90
2023-02-12T14:49:24.178Z,10.63
2023-02-12T14:51:59.381Z,9.65
2023-02-12T14:54:32.821Z,8.27
2023-02-12T14:57:06.795Z,8.85
2023-02-12T14:59:41.959Z,9.50
2023-02-12T15:02:16.401Z,9.20
2023-02-12T15:04:47.001Z,7.68
2023-02-12T15:07:24.701Z,8.20
2023-02-12T15:09:58.938Z,6.13
2023-02-12T15:12:33.282Z,20.23
2023-02-12T15:15:08.832Z,14.20
2023-02-12T15:17:42.717Z,23.75
2023-02-12T15:20:21.381Z,18.20
2023-02-12T15:22:51.363Z,13.77
2023-02-12T15:25:25.606Z,11.25
2023-02-12T15:27:59.005Z,12.13
2023-02-12T15:30:37.130Z,8.07
2023-02-12T15:33:11.084Z,8.80
2023-02-12T15:35:46.356Z,6.97
2023-02-12T15:38:22.939Z,6.35
2023-02-12T15:40:56.852Z,8.05
2023-02-12T15:43:30.413Z,10.10
2023-02-12T15:45:59.538Z,7.40
2023-02-12T15:48:33.526Z,7.03
2023-02-12T15:51:10.281Z,9.07
2023-02-12T15:53:41.223Z,26.60
2023-02-12T15:56:14.895Z,11.82
2023-02-12T15:58:49.376Z,11.18
2023-02-12T16:01:21.126Z,10.93
2023-02-12T16:03:54.333Z,7.07
2023-02-12T16:06:26.306Z,7.32
2023-02-12T16:09:02.250Z,8.57
2023-02-12T16:11:32.769Z,6.13
2023-02-12T16:14:05.583Z,10.00
2023-02-12T16:16:45.291Z,9.70
2023-02-12T16:19:22.734Z,8.45
2023-02-12T16:21:56.268Z,6.93
2023-02-12T16:24:32.528Z,10.80
2023-02-12T16:27:09.231Z,6.05
2023-02-12T16:29:44.931Z,7.88
2023-02-12T16:32:34.395Z,7.70
2023-02-12T16:35:24.235Z,9.02
2023-02-12T16:37:59.770Z,8.95
2023-02-12T16:40:34.154Z,10.27
2023-02-12T16:43:32.300Z,8.80
2023-02-12T16:46:10.075Z,7.15
2023-02-12T16:48:49.436Z,11.65
2023-02-12T16:51:33.154Z,9.60
2023-02-12T16:54:04.253Z,10.60
2023-02-12T16:56:38.971Z,14.55
2023-02-12T16:59:08.068Z,14.07
2023-02-12T17:01:38.285Z,11.20
2023-02-12T17:04:09.838Z,8.13
2023-02-12T17:06:40.360Z,10.77
2023-02-12T17:09:10.446Z,9.57
2023-02-12T17:11:40.708Z,10.77
2023-02-12T17:14:15.520Z,11.43
2023-02-12T17:16:44.672Z,12.18
2023-02-12T17:19:13.931Z,8.57
2023-02-12T17:21:45.763Z,7.72
2023-02-12T17:24:20.772Z,10.73
2023-02-12T17:26:51.127Z,11.35
2023-02-12T17:29:21.421Z,10.10
2023-02-12T17:31:53.706Z,7.63
2023-02-12T17:34:23.558Z,10.55
2023-02-12T17:36:54.190Z,7.88
2023-02-12T17:39:23.386Z,16.73
2023-02-12T17:41:52.759Z,16.60
2023-02-12T17:44:21.808Z,13.23
2023-02-12T17:46:50.816Z,12.23
2023-02-12T17:49:19.893Z,9.10
2023-02-12T17:51:48.925Z,14.02
2023-02-12T17:54:19.374Z,13.63
2023-02-12T17:56:48.416Z,17.45
2023-02-12T17:59:17.516Z,13.43
2023-02-12T18:01:46.780Z,14.35
2023-02-12T18:04:15.897Z,12.63
2023-02-12T18:06:44.958Z,14.55
2023-02-12T18:09:14.330Z,16.98
2023-02-12T18:11:44.844Z,11.65
2023-02-12T18:14:13.964Z,13.05
2023-02-12T18:16:43.042Z,12.57
2023-02-12T18:19:12.194Z,36.08
2023-02-12T18:21:42.027Z,31.65
2023-02-12T18:24:11.406Z,59.45
2023-02-12T18:26:40.562Z,28.65
2023-02-12T18:29:11.236Z,31.65
2023-02-12T18:31:40.607Z,24.50
2023-02-12T18:34:09.926Z,21.17
2023-02-12T18:36:39.130Z,20.38
2023-02-12T18:39:08.137Z,18.48
2023-02-12T18:41:37.243Z,20.80
2023-02-12T18:44:06.516Z,17.15
2023-02-12T18:46:36.906Z,21.77
2023-02-12T18:49:06.058Z,21.27
2023-02-12T18:51:37.292Z,16.08
2023-02-12T18:56:40.118Z,15.30
2023-02-12T18:59:09.887Z,19.15
2023-02-12T19:01:41.062Z,17.35
2023-02-12T19:06:45.271Z,19.45
2023-02-12T19:09:16.748Z,15.80
2023-02-12T19:11:47.344Z,19.77
2023-02-12T19:14:17.228Z,18.02
2023-02-12T19:16:48.358Z,18.60
2023-02-12T19:19:22.184Z,19.65
2023-02-12T19:21:51.343Z,23.52
2023-02-12T19:24:20.964Z,29.98
2023-02-12T19:26:53.005Z,20.45
2023-02-12T19:29:22.185Z,14.60
2023-02-12T19:31:52.681Z,18.95
2023-02-12T19:34:24.879Z,13.90
2023-02-12T19:36:54.504Z,19.27
2023-02-12T19:39:24.950Z,14.70
2023-02-12T19:41:56.139Z,11.85
2023-02-12T19:44:26.688Z,12.68
2023-02-12T19:46:57.876Z,10.90
2023-02-12T19:51:56.889Z,14.35
2023-02-12T19:54:26.238Z,12.02
2023-02-12T19:56:56.392Z,14.85
2023-02-12T19:59:26.929Z,10.23
2023-02-12T20:01:57.578Z,13.68
2023-02-12T20:04:26.930Z,17.63
2023-02-12T20:06:56.080Z,15.02
2023-02-12T20:09:25.357Z,15.80
2023-02-12T20:11:55.275Z,17.63
2023-02-12T20:14:24.519Z,18.27
2023-02-12T20:16:59.656Z,20.23
2023-02-12T20:19:31.314Z,17.67
2023-02-12T20:22:02.238Z,19.63
2023-02-12T20:24:33.194Z,14.57
2023-02-12T20:27:03.696Z,13.73
2023-02-12T20:29:33.017Z,15.65
2023-02-12T20:32:03.563Z,16.02
2023-02-12T20:34:48.922Z,17.40
2023-02-12T20:37:19.438Z,11.13
2023-02-12T20:39:48.981Z,11.57
2023-02-12T20:42:18.222Z,16.88
2023-02-12T20:44:47.487Z,15.48
2023-02-12T20:47:18.045Z,13.20
2023-02-12T20:49:47.242Z,16.88
2023-02-12T20:52:16.960Z,17.63
2023-02-12T20:54:48.015Z,21.88
2023-02-12T20:57:17.385Z,22.63
2023-02-12T20:59:46.570Z,15.43
2023-02-12T21:02:18.524Z,14.02
2023-02-12T21:04:47.630Z,17.70
2023-02-12T21:07:16.844Z,16.02
2023-02-12T21:09:45.855Z,15.93
2023-02-12T21:12:15.529Z,12.10
2023-02-12T21:14:44.960Z,12.45
2023-02-12T21:17:14.368Z,20.35
2023-02-12T21:19:45.047Z,16.63
2023-02-12T21:22:14.267Z,16.55
2023-02-12T21:24:43.429Z,18.55
2023-02-12T21:27:12.594Z,16.92
2023-02-12T21:29:41.781Z,16.30
2023-02-12T21:32:11.019Z,14.52
2023-02-12T21:34:40.353Z,19.38
2023-02-12T21:37:10.832Z,20.40
2023-02-12T21:39:40.135Z,16.17
2023-02-12T21:42:09.338Z,16.92
2023-02-12T21:44:39.053Z,14.52
2023-02-12T21:47:08.881Z,14.88
2023-02-12T21:49:38.448Z,19.63
2023-02-12T21:52:08.544Z,22.58
2023-02-12T21:54:40.024Z,19.17
2023-02-12T21:59:38.608Z,17.85
2023-02-12T22:02:10.986Z,16.25
2023-02-12T22:04:40.217Z,23.45
2023-02-12T22:07:09.295Z,22.55
2023-02-12T22:09:39.838Z,20.65
2023-02-12T22:12:09.903Z,20.13
2023-02-12T22:14:41.906Z,25.95
2023-02-12T22:17:10.925Z,25.58
2023-02-12T22:19:40.393Z,24.85
2023-02-12T22:22:09.754Z,27.25
2023-02-12T22:24:41.314Z,24.55
2023-02-12T22:27:11.139Z,26.77
2023-02-12T22:29:40.424Z,30.58
2023-02-12T22:32:09.668Z,26.65
2023-02-12T22:34:38.974Z,30.50
2023-02-12T22:37:07.985Z,29.80
2023-02-12T22:39:37.013Z,25.95
2023-02-12T22:42:07.667Z,29.85
2023-02-12T22:44:36.832Z,31.35
2023-02-12T22:47:07.118Z,25.83
2023-02-12T22:49:36.151Z,27.23
2023-02-12T22:52:05.482Z,30.75
2023-02-12T22:54:34.586Z,29.33
2023-02-12T22:57:03.607Z,31.50
2023-02-12T22:59:34.043Z,27.30
2023-02-12T23:02:04.257Z,24.93
2023-02-12T23:04:33.428Z,33.10
2023-02-12T23:07:02.450Z,27.52
2023-02-12T23:09:31.622Z,28.95
2023-02-12T23:12:00.721Z,26.65
2023-02-12T23:14:29.803Z,28.40
2023-02-12T23:17:00.325Z,26.75
2023-02-12T23:19:29.522Z,26.67
2023-02-12T23:21:58.741Z,28.88
2023-02-12T23:24:28.046Z,27.58
2023-02-12T23:26:57.999Z,26.15
2023-02-12T23:29:27.118Z,24.30
2023-02-12T23:31:56.731Z,27.05
2023-02-12T23:34:27.659Z,29.13
2023-02-12T23:36:56.675Z,25.52
2023-02-12T23:39:27.460Z,23.50
2023-02-12T23:41:56.507Z,26.20
2023-02-12T23:44:25.600Z,27.38
2023-02-12T23:46:54.632Z,27.60
2023-02-12T23:49:23.747Z,23.08
2023-02-12T23:51:54.158Z,24.80
2023-02-12T23:54:23.266Z,27.70
2023-02-12T23:56:52.366Z,25.10
2023-02-12T23:59:21.491Z,26.38
